Time;durP1;ratioP1;P1;durP2;ratioP2;P2;SDS_P1;SDS_P2;PMS_P1;PMS_P2;Temp;Humidity;BMP_temperature;BMP_pressure;BME280_temperature;BME280_humidity;BME280_pressure;Samples;Min_cycle;Max_cycle;Signal;HPM_P1;HPM_P2
2023/09/06 00:01:16;;;;;;;4.47;4.07;;;25.00;49.70;;;;;;5003554;28;20277;-48
2023/09/06 00:03:42;;;;;;;5.90;3.80;;;25.00;49.30;;;;;;5011428;28;20575;-46
2023/09/06 00:06:09;;;;;;;8.40;4.67;;;25.00;49.30;;;;;;5008885;28;20856;-47
2023/09/06 00:08:34;;;;;;;4.03;3.70;;;25.00;49.60;;;;;;5011799;28;20194;-49
2023/09/06 00:11:04;;;;;;;4.17;3.80;;;25.00;49.60;;;;;;5007892;28;20472;-50
2023/09/06 00:13:33;;;;;;;4.73;3.93;;;25.00;50.00;;;;;;5010099;28;20260;-46
2023/09/06 00:16:00;;;;;;;6.30;4.20;;;25.00;49.20;;;;;;4999417;28;20456;-47
2023/09/06 00:18:27;;;;;;;6.80;4.20;;;24.80;49.40;;;;;;5001816;28;20441;-48
2023/09/06 00:20:53;;;;;;;8.77;4.50;;;24.80;49.40;;;;;;5002604;28;20528;-47
2023/09/06 00:23:20;;;;;;;8.67;4.30;;;24.70;49.50;;;;;;5003014;28;20523;-48
2023/09/06 00:25:46;;;;;;;5.83;4.67;;;24.60;49.80;;;;;;5002147;28;20494;-50
2023/09/06 00:28:12;;;;;;;7.57;5.00;;;24.40;50.00;;;;;;5005914;28;20451;-47
2023/09/06 00:30:39;;;;;;;4.60;4.20;;;24.30;50.30;;;;;;5007112;28;20436;-48
2023/09/06 00:33:06;;;;;;;4.70;4.20;;;24.20;50.80;;;;;;5005075;28;20445;-47
2023/09/06 00:35:32;;;;;;;5.20;4.27;;;24.20;51.20;;;;;;5006267;28;20862;-46
2023/09/06 00:38:05;;;;;;;6.67;5.17;;;24.30;51.30;;;;;;5005986;28;20457;-50
2023/09/06 00:40:35;;;;;;;6.13;4.43;;;24.30;50.60;;;;;;5004382;28;20444;-48
2023/09/06 00:43:02;;;;;;;7.53;4.63;;;24.30;50.60;;;;;;5002828;28;20603;-50
2023/09/06 00:45:36;;;;;;;4.97;4.47;;;24.40;50.60;;;;;;5005681;28;20456;-48
2023/09/06 00:48:05;;;;;;;6.17;4.73;;;24.50;50.30;;;;;;5001332;28;20455;-49
2023/09/06 00:50:33;;;;;;;5.03;3.93;;;24.40;49.90;;;;;;5010223;28;20440;-49
2023/09/06 00:52:59;;;;;;;4.90;4.33;;;24.30;50.00;;;;;;5014102;28;20510;-49
2023/09/06 00:55:26;;;;;;;8.83;4.40;;;24.30;50.70;;;;;;5015643;28;20437;-50
2023/09/06 00:57:52;;;;;;;8.73;4.40;;;24.40;50.60;;;;;;5014355;28;20876;-47
2023/09/06 01:00:19;;;;;;;5.10;4.50;;;24.30;50.30;;;;;;5010890;28;20499;-48
2023/09/06 01:02:47;;;;;;;4.30;3.90;;;24.20;50.30;;;;;;5013547;28;20975;-46
2023/09/06 01:05:13;;;;;;;5.70;4.20;;;24.10;50.70;;;;;;5015593;28;20499;-47
2023/09/06 01:07:40;;;;;;;5.03;4.53;;;24.20;50.70;;;;;;5012044;28;20495;-48
2023/09/06 01:10:06;;;;;;;6.10;4.53;;;24.30;50.60;;;;;;5013767;28;20441;-46
2023/09/06 01:12:34;;;;;;;5.33;4.83;;;24.30;50.40;;;;;;5001859;28;20464;-49
2023/09/06 01:15:03;;;;;;;5.97;4.70;;;24.40;50.50;;;;;;5014439;28;20463;-47
2023/09/06 01:17:31;;;;;;;4.77;4.37;;;24.50;49.90;;;;;;5009021;28;20451;-46
2023/09/06 01:20:14;;;;;;;5.00;4.60;;;24.50;50.00;;;;;;5012040;28;20437;-47
2023/09/06 01:22:46;;;;;;;5.63;4.90;;;24.50;49.80;;;;;;5006007;28;20938;-46
2023/09/06 01:25:11;;;;;;;4.73;4.33;;;24.40;49.70;;;;;;5004892;28;20484;-47
2023/09/06 01:27:38;;;;;;;6.07;4.03;;;24.40;49.50;;;;;;5007558;28;20867;-47
2023/09/06 01:30:04;;;;;;;5.20;4.70;;;24.30;49.70;;;;;;5008775;28;20236;-47
2023/09/06 01:32:30;;;;;;;5.53;3.90;;;24.20;50.00;;;;;;5007364;28;20432;-47
2023/09/06 01:34:55;;;;;;;8.40;5.60;;;24.20;49.90;;;;;;5003736;28;20846;-50
2023/09/06 01:37:21;;;;;;;5.73;5.23;;;24.10;49.80;;;;;;5000427;28;20871;-47
2023/09/06 01:39:47;;;;;;;5.70;5.20;;;24.00;49.70;;;;;;5008116;28;20551;-48
2023/09/06 01:42:13;;;;;;;4.97;4.57;;;23.90;49.90;;;;;;5009384;28;20202;-48
2023/09/06 01:44:38;;;;;;;5.50;5.00;;;23.70;50.10;;;;;;5007396;28;20391;-46
2023/09/06 01:47:04;;;;;;;5.37;4.80;;;23.60;50.30;;;;;;5008648;28;20200;-47
2023/09/06 01:49:29;;;;;;;4.63;4.23;;;23.60;51.10;;;;;;5004810;28;20197;-46
2023/09/06 01:51:57;;;;;;;4.27;3.93;;;23.50;51.00;;;;;;5001854;28;20252;-47
2023/09/06 01:54:23;;;;;;;5.50;4.20;;;23.50;51.50;;;;;;5009534;28;20198;-48
2023/09/06 01:56:49;;;;;;;7.13;5.63;;;23.60;51.40;;;;;;5002811;28;20814;-45
2023/09/06 01:59:14;;;;;;;5.20;4.10;;;23.60;51.30;;;;;;5012921;28;20715;-46
2023/09/06 02:01:40;;;;;;;6.83;4.80;;;23.60;51.20;;;;;;5005093;28;20213;-45
2023/09/06 02:04:06;;;;;;;5.10;4.43;;;23.50;51.50;;;;;;5001237;28;20299;-48
2023/09/06 02:06:32;;;;;;;5.50;4.60;;;23.60;51.60;;;;;;5004010;28;20679;-46
2023/09/06 02:08:57;;;;;;;5.20;4.40;;;23.70;51.30;;;;;;5003635;28;20641;-45
2023/09/06 02:11:23;;;;;;;4.33;3.93;;;23.80;51.50;;;;;;5004689;28;20220;-46
2023/09/06 02:13:49;;;;;;;5.30;4.80;;;23.80;52.10;;;;;;4996321;28;20198;-45
2023/09/06 02:16:16;;;;;;;4.70;4.30;;;23.90;51.40;;;;;;5006681;28;20281;-45
2023/09/06 02:18:42;;;;;;;5.10;4.60;;;24.00;51.00;;;;;;5011058;28;20205;-46
2023/09/06 02:21:07;;;;;;;4.70;4.30;;;24.00;50.50;;;;;;5008305;28;20494;-46
2023/09/06 02:23:35;;;;;;;6.00;5.20;;;24.00;50.90;;;;;;5007760;28;20221;-46
2023/09/06 02:26:00;;;;;;;6.27;4.27;;;24.00;50.20;;;;;;5005004;28;20186;-47
2023/09/06 02:28:26;;;;;;;4.73;4.20;;;24.00;49.90;;;;;;5011649;28;20807;-45
2023/09/06 02:30:52;;;;;;;5.27;4.60;;;24.00;50.10;;;;;;5008734;28;20198;-45
2023/09/06 02:33:17;;;;;;;4.43;3.80;;;24.00;50.80;;;;;;5008393;28;20199;-46
2023/09/06 02:35:44;;;;;;;5.33;4.70;;;24.00;50.70;;;;;;5008940;28;20201;-49
2023/09/06 02:38:13;;;;;;;5.30;4.30;;;24.00;50.50;;;;;;5012587;28;20201;-46
2023/09/06 02:40:41;;;;;;;5.90;4.67;;;23.90;49.00;;;;;;5010587;28;20488;-46
2023/09/06 02:43:07;;;;;;;8.33;4.60;;;23.70;48.90;;;;;;5002668;28;20445;-46
2023/09/06 02:45:39;;;;;;;5.93;4.07;;;23.50;49.40;;;;;;5006262;28;20448;-46
2023/09/06 02:48:18;;;;;;;9.13;4.93;;;23.00;50.30;;;;;;5002013;28;20272;-47
2023/09/06 02:50:46;;;;;;;7.13;4.40;;;22.70;51.20;;;;;;5004744;28;20449;-47
2023/09/06 02:53:19;;;;;;;5.47;4.97;;;22.50;51.60;;;;;;5012452;28;20436;-46
2023/09/06 02:55:51;;;;;;;5.20;4.80;;;22.30;52.00;;;;;;5010075;28;20467;-47
2023/09/06 02:58:18;;;;;;;5.23;4.63;;;22.10;52.00;;;;;;5011262;28;20451;-48
2023/09/06 03:00:49;;;;;;;5.77;5.23;;;22.00;52.00;;;;;;5011123;28;20502;-46
2023/09/06 03:03:16;;;;;;;5.30;4.80;;;21.90;52.30;;;;;;5012514;28;20531;-48
2023/09/06 03:05:42;;;;;;;5.80;5.30;;;21.80;52.70;;;;;;5007514;28;20454;-45
2023/09/06 03:08:08;;;;;;;5.07;4.67;;;21.60;53.10;;;;;;5010875;28;20437;-46
2023/09/06 03:10:35;;;;;;;6.13;5.23;;;21.50;53.10;;;;;;5007599;28;20441;-47
2023/09/06 03:13:01;;;;;;;7.20;4.60;;;21.40;53.20;;;;;;5012790;28;20444;-46
2023/09/06 03:15:28;;;;;;;7.90;4.63;;;21.40;53.30;;;;;;5012538;28;20444;-48
2023/09/06 03:17:54;;;;;;;5.40;4.90;;;21.30;53.30;;;;;;5004724;28;20456;-46
2023/09/06 03:20:31;;;;;;;5.60;5.10;;;21.20;53.40;;;;;;5012500;28;20436;-46
2023/09/06 03:22:58;;;;;;;6.03;5.53;;;21.10;53.40;;;;;;4997659;28;21484;-47
2023/09/06 03:25:26;;;;;;;5.30;4.80;;;20.80;55.20;;;;;;5001258;28;20516;-48
2023/09/06 03:27:59;;;;;;;6.07;5.30;;;20.70;54.90;;;;;;5001655;28;21134;-47
2023/09/06 03:30:27;;;;;;;6.43;5.77;;;20.70;55.00;;;;;;5002998;28;20460;-50
2023/09/06 03:32:53;;;;;;;6.90;4.73;;;20.50;55.40;;;;;;5001632;28;20546;-45
2023/09/06 03:35:22;;;;;;;6.10;5.40;;;20.50;55.50;;;;;;5002655;28;20444;-46
2023/09/06 03:37:48;;;;;;;5.80;5.30;;;20.50;55.20;;;;;;5002517;28;20448;-46
2023/09/06 03:40:25;;;;;;;5.57;4.93;;;20.60;55.00;;;;;;5003764;28;20847;-46
2023/09/06 03:42:54;;;;;;;5.47;4.73;;;20.60;54.90;;;;;;5001605;28;20440;-45
2023/09/06 03:45:24;;;;;;;5.50;5.00;;;20.50;54.80;;;;;;4999024;28;20567;-48
2023/09/06 03:47:51;;;;;;;7.10;5.20;;;20.60;54.90;;;;;;4999775;28;20548;-45
2023/09/06 03:50:17;;;;;;;6.10;5.30;;;20.50;54.70;;;;;;5008610;28;20445;-47
2023/09/06 03:52:43;;;;;;;6.80;4.60;;;20.50;54.70;;;;;;5008645;28;20952;-46
2023/09/06 03:55:10;;;;;;;6.10;5.00;;;20.50;54.70;;;;;;5010126;28;20441;-45
2023/09/06 03:57:37;;;;;;;4.77;4.37;;;20.40;54.50;;;;;;5008917;28;20194;-45
2023/09/06 04:02:47;;;;;;;6.80;5.73;;;20.40;54.50;;;;;;5010198;28;20449;-46
2023/09/06 04:05:13;;;;;;;6.40;5.30;;;20.30;54.40;;;;;;5010644;28;20488;-45
2023/09/06 04:07:39;;;;;;;4.90;4.50;;;20.30;54.40;;;;;;5011986;28;20272;-47
2023/09/06 04:10:16;;;;;;;8.40;6.07;;;20.20;54.40;;;;;;5005593;28;20201;-45
2023/09/06 04:12:44;;;;;;;5.77;5.27;;;20.20;54.50;;;;;;5003200;28;20197;-46
2023/09/06 04:15:14;;;;;;;8.70;5.80;;;20.10;54.50;;;;;;5004579;28;21035;-47
2023/09/06 04:17:40;;;;;;;6.10;5.30;;;20.10;54.80;;;;;;5003284;28;20449;-47
2023/09/06 04:20:20;;;;;;;6.47;5.87;;;20.00;55.00;;;;;;5004209;28;20432;-46
2023/09/06 04:22:47;;;;;;;7.60;5.40;;;19.90;55.30;;;;;;5006422;28;20479;-45
2023/09/06 04:25:16;;;;;;;6.23;5.30;;;19.90;55.40;;;;;;5003560;28;20520;-45
2023/09/06 04:27:45;;;;;;;5.80;5.30;;;19.90;55.40;;;;;;5003932;28;20484;-48
2023/09/06 04:30:13;;;;;;;5.57;4.60;;;19.90;55.60;;;;;;5003403;28;20456;-45
2023/09/06 04:32:38;;;;;;;5.10;4.60;;;19.90;55.50;;;;;;5006169;28;20454;-45
2023/09/06 04:35:06;;;;;;;5.70;4.80;;;19.80;55.30;;;;;;5001512;28;20437;-45
2023/09/06 04:37:32;;;;;;;4.80;4.30;;;19.60;55.20;;;;;;5003870;28;20201;-45
2023/09/06 04:39:57;;;;;;;5.70;5.10;;;19.70;55.30;;;;;;5002970;28;20476;-45
2023/09/06 04:42:23;;;;;;;5.93;4.97;;;19.60;55.40;;;;;;5009485;28;20280;-48
2023/09/06 04:44:49;;;;;;;5.57;5.07;;;19.60;55.40;;;;;;5007332;28;20271;-45
2023/09/06 04:47:15;;;;;;;5.90;4.67;;;19.60;55.40;;;;;;4993674;28;20572;-45
2023/09/06 04:49:40;;;;;;;5.80;5.13;;;19.50;55.90;;;;;;5005004;28;20531;-45
2023/09/06 04:52:07;;;;;;;5.00;4.60;;;19.40;56.30;;;;;;4972346;28;1108884;-45
2023/09/06 04:54:33;;;;;;;5.87;4.67;;;19.50;56.10;;;;;;5008341;28;20206;-46
2023/09/06 04:56:59;;;;;;;5.37;4.87;;;19.50;55.80;;;;;;5007538;28;20455;-47
2023/09/06 04:59:24;;;;;;;6.43;5.20;;;19.50;55.70;;;;;;5012258;28;20260;-45
2023/09/06 05:01:50;;;;;;;5.33;4.83;;;19.50;55.60;;;;;;5014288;28;20236;-45
2023/09/06 05:04:16;;;;;;;5.73;5.13;;;19.50;55.40;;;;;;5005286;28;20236;-45
2023/09/06 05:06:43;;;;;;;5.87;5.37;;;19.50;55.40;;;;;;5011882;28;20222;-44
2023/09/06 05:09:10;;;;;;;5.50;4.90;;;19.50;55.30;;;;;;5011598;28;20495;-44
2023/09/06 05:11:36;;;;;;;8.00;5.90;;;19.60;57.50;;;;;;5011813;28;20202;-46
2023/09/06 05:14:02;;;;;;;5.53;4.40;;;19.80;57.90;;;;;;5012818;28;20464;-45
2023/09/06 05:16:27;;;;;;;6.17;5.57;;;20.10;57.00;;;;;;5013634;28;20201;-45
2023/09/06 05:18:53;;;;;;;6.20;5.30;;;20.30;56.30;;;;;;5014295;28;20429;-44
2023/09/06 05:21:19;;;;;;;7.27;5.67;;;20.40;56.40;;;;;;5008627;28;20680;-45
2023/09/06 05:23:44;;;;;;;8.10;5.00;;;20.60;55.70;;;;;;5009320;28;20225;-45
2023/09/06 05:26:10;;;;;;;6.13;5.20;;;20.70;55.20;;;;;;5006199;28;20551;-45
2023/09/06 05:28:35;;;;;;;5.93;5.43;;;20.90;54.80;;;;;;5006234;28;20201;-44
2023/09/06 05:31:02;;;;;;;6.17;5.57;;;21.00;54.30;;;;;;5006181;28;20230;-44
2023/09/06 05:33:28;;;;;;;7.00;5.33;;;21.10;53.60;;;;;;5007334;28;20202;-46
2023/09/06 05:35:56;;;;;;;5.97;5.37;;;21.20;53.30;;;;;;5012523;28;20535;-44
2023/09/06 05:38:22;;;;;;;6.10;5.37;;;21.20;53.00;;;;;;5013135;28;20193;-45
2023/09/06 05:40:50;;;;;;;5.13;4.73;;;21.30;53.00;;;;;;5013085;28;20436;-45
2023/09/06 05:43:15;;;;;;;6.70;5.40;;;21.30;53.10;;;;;;5011912;28;20200;-46
2023/09/06 05:45:41;;;;;;;10.50;5.77;;;21.40;52.90;;;;;;5008758;28;20441;-45
2023/09/06 05:48:07;;;;;;;7.90;5.70;;;21.40;53.00;;;;;;5012901;28;20663;-45
2023/09/06 05:50:32;;;;;;;6.57;5.90;;;21.50;52.90;;;;;;5006375;28;20205;-48
2023/09/06 05:52:58;;;;;;;6.20;5.37;;;21.50;52.50;;;;;;5011412;28;20201;-48
2023/09/06 05:55:24;;;;;;;8.67;5.83;;;21.40;52.50;;;;;;5002549;28;20187;-44
2023/09/06 05:57:50;;;;;;;6.40;5.80;;;21.40;52.60;;;;;;5001771;28;20205;-45
2023/09/06 06:00:15;;;;;;;6.70;6.00;;;21.40;52.80;;;;;;5006603;28;20280;-48
2023/09/06 06:02:45;;;;;;;6.40;4.88;;;21.50;52.80;;;;;;5004894;28;20946;-47
2023/09/06 06:05:12;;;;;;;7.67;5.30;;;21.60;52.50;;;;;;5007870;28;20221;-49
2023/09/06 06:07:41;;;;;;;5.70;4.67;;;21.60;52.60;;;;;;5006682;28;20480;-44
2023/09/06 06:10:10;;;;;;;7.77;5.67;;;21.80;52.50;;;;;;5008213;28;20441;-47
2023/09/06 06:12:38;;;;;;;6.03;5.43;;;21.90;52.20;;;;;;5007350;28;20477;-46
2023/09/06 06:15:13;;;;;;;5.00;4.50;;;22.00;52.00;;;;;;5006574;28;20440;-45
2023/09/06 06:17:40;;;;;;;8.63;5.60;;;22.20;52.50;;;;;;5005862;28;20458;-44
2023/09/06 06:20:10;;;;;;;10.17;5.13;;;22.20;51.70;;;;;;5008618;28;20437;-46
2023/09/06 06:22:38;;;;;;;5.70;5.20;;;22.30;51.60;;;;;;5014279;28;20444;-45
2023/09/06 06:25:08;;;;;;;4.70;4.30;;;22.40;51.50;;;;;;5009660;28;20493;-47
2023/09/06 06:27:34;;;;;;;5.07;4.57;;;22.50;51.50;;;;;;5012209;28;20468;-45
2023/09/06 06:29:59;;;;;;;5.30;4.40;;;22.60;51.50;;;;;;5012272;28;20417;-45
2023/09/06 06:32:25;;;;;;;7.60;5.13;;;22.60;51.30;;;;;;5014086;28;20843;-45
2023/09/06 06:34:53;;;;;;;6.63;5.10;;;22.70;51.30;;;;;;5013512;28;20252;-45
2023/09/06 06:37:19;;;;;;;6.50;5.37;;;22.80;51.10;;;;;;5012262;28;20205;-48
2023/09/06 06:39:44;;;;;;;5.60;5.10;;;22.90;51.20;;;;;;5014025;28;20425;-46
2023/09/06 06:42:10;;;;;;;8.03;5.70;;;22.90;51.00;;;;;;5009908;28;20554;-48
2023/09/06 06:44:36;;;;;;;7.40;6.47;;;23.00;51.20;;;;;;5010815;28;20235;-46
2023/09/06 06:47:01;;;;;;;8.90;5.60;;;22.80;51.60;;;;;;5002712;28;20277;-45
2023/09/06 06:49:27;;;;;;;6.23;5.13;;;22.60;51.70;;;;;;5012212;28;20198;-46
2023/09/06 06:51:52;;;;;;;6.40;5.80;;;22.70;52.10;;;;;;5014112;28;20292;-45
2023/09/06 06:54:19;;;;;;;5.67;5.13;;;22.70;52.20;;;;;;5009959;28;20193;-48
2023/09/06 06:56:45;;;;;;;8.47;6.43;;;22.90;52.10;;;;;;5013207;28;20642;-45
2023/09/06 06:59:10;;;;;;;6.40;5.60;;;23.00;52.60;;;;;;5012291;28;20437;-47
2023/09/06 07:01:36;;;;;;;6.57;5.93;;;23.00;52.00;;;;;;5013697;28;20197;-45
2023/09/06 07:04:05;;;;;;;6.73;4.70;;;23.10;52.20;;;;;;5013451;28;20271;-45
2023/09/06 07:06:31;;;;;;;5.77;5.27;;;23.20;52.30;;;;;;5011275;28;20186;-46
2023/09/06 07:09:03;;;;;;;5.10;4.70;;;23.30;51.90;;;;;;5013417;28;20803;-47
2023/09/06 07:11:29;;;;;;;9.10;5.67;;;23.20;51.70;;;;;;5013582;28;20445;-44
2023/09/06 07:13:54;;;;;;;7.37;5.17;;;23.30;51.90;;;;;;5013433;28;20540;-46
2023/09/06 07:16:20;;;;;;;5.27;4.60;;;23.20;51.70;;;;;;5011705;28;20205;-46
2023/09/06 07:18:47;;;;;;;6.10;4.87;;;23.30;51.70;;;;;;5012684;28;20272;-45
2023/09/06 07:21:13;;;;;;;5.20;4.70;;;23.60;51.30;;;;;;5006842;28;20208;-48
2023/09/06 07:23:39;;;;;;;6.17;5.57;;;23.60;51.10;;;;;;5008586;28;20491;-50
2023/09/06 07:26:05;;;;;;;7.60;5.20;;;23.70;50.80;;;;;;5013355;28;20775;-49
2023/09/06 07:28:39;;;;;;;4.63;4.23;;;24.00;50.50;;;;;;5013340;28;20190;-49
2023/09/06 07:31:06;;;;;;;5.73;4.77;;;24.00;50.20;;;;;;5013313;28;20519;-48
2023/09/06 07:33:31;;;;;;;5.23;4.43;;;24.10;50.10;;;;;;5011582;28;20437;-50
2023/09/06 07:35:57;;;;;;;5.50;5.10;;;24.20;49.60;;;;;;5013158;28;20428;-49
2023/09/06 07:38:23;;;;;;;5.03;4.60;;;24.10;49.60;;;;;;5012913;28;20197;-48
2023/09/06 07:40:58;;;;;;;5.03;4.53;;;24.00;50.10;;;;;;5013045;28;20190;-47
2023/09/06 07:43:25;;;;;;;6.80;5.90;;;24.20;49.70;;;;;;5009135;28;20243;-49
2023/09/06 07:45:52;;;;;;;5.40;4.53;;;24.40;49.30;;;;;;5001753;28;20956;-49
2023/09/06 07:48:18;;;;;;;6.03;5.27;;;24.50;49.70;;;;;;5009366;28;20929;-49
2023/09/06 07:50:43;;;;;;;5.77;5.27;;;24.60;49.00;;;;;;5012036;28;20505;-49
2023/09/06 07:53:09;;;;;;;5.60;5.20;;;24.70;48.70;;;;;;5011850;28;20194;-48
2023/09/06 07:55:37;;;;;;;5.97;5.37;;;24.70;48.40;;;;;;5007684;28;20320;-45
2023/09/06 07:58:03;;;;;;;5.70;5.27;;;24.80;48.60;;;;;;5001812;28;20573;-48
2023/09/06 08:00:31;;;;;;;4.50;4.20;;;25.00;48.40;;;;;;5012811;28;20416;-48
2023/09/06 08:02:56;;;;;;;5.40;4.73;;;25.00;48.50;;;;;;5012829;28;20339;-48
2023/09/06 08:05:22;;;;;;;5.60;5.03;;;25.10;48.30;;;;;;5012955;28;20551;-46
2023/09/06 08:07:47;;;;;;;6.90;5.50;;;25.20;48.10;;;;;;5011087;28;20190;-49
2023/09/06 08:10:13;;;;;;;5.93;5.33;;;25.40;48.00;;;;;;5011546;28;20204;-49
2023/09/06 08:12:39;;;;;;;5.93;5.43;;;25.40;47.80;;;;;;5011847;28;20217;-47
2023/09/06 08:15:06;;;;;;;5.50;4.90;;;25.60;47.50;;;;;;5002775;28;20202;-45
2023/09/06 08:17:31;;;;;;;7.77;5.37;;;25.60;47.50;;;;;;5009183;28;20202;-49
2023/09/06 08:19:57;;;;;;;5.60;4.37;;;25.70;47.90;;;;;;5000248;28;20448;-48
2023/09/06 08:22:22;;;;;;;5.43;4.93;;;25.90;46.70;;;;;;5009423;28;20280;-49
2023/09/06 08:24:48;;;;;;;5.63;5.13;;;26.00;46.70;;;;;;5002617;28;20232;-45
2023/09/06 08:27:13;;;;;;;5.27;4.60;;;26.00;46.80;;;;;;5005843;28;20233;-49
2023/09/06 08:29:39;;;;;;;5.10;4.63;;;26.10;46.50;;;;;;5009308;28;20198;-48
2023/09/06 08:32:05;;;;;;;8.87;5.23;;;26.30;46.50;;;;;;5012718;28;20272;-50
2023/09/06 08:34:30;;;;;;;4.63;4.23;;;26.40;46.30;;;;;;5006556;28;20197;-46
2023/09/06 08:36:56;;;;;;;5.27;4.83;;;26.50;46.30;;;;;;5007547;28;20689;-45
2023/09/06 08:39:22;;;;;;;5.50;5.00;;;26.60;46.30;;;;;;5010123;28;20317;-44
2023/09/06 08:41:49;;;;;;;5.30;4.80;;;26.40;45.70;;;;;;5006863;28;20922;-49
2023/09/06 08:44:18;;;;;;;5.77;4.80;;;26.40;46.20;;;;;;5004768;28;20233;-46
2023/09/06 08:46:46;;;;;;;6.40;4.57;;;26.40;46.60;;;;;;5003489;28;20473;-47
2023/09/06 08:49:13;;;;;;;6.47;5.87;;;26.60;46.50;;;;;;5007250;28;20445;-47
2023/09/06 08:51:40;;;;;;;4.83;4.40;;;26.90;46.00;;;;;;5008842;28;21011;-46
2023/09/06 08:54:06;;;;;;;5.00;4.60;;;27.10;45.30;;;;;;5006951;28;20535;-46
2023/09/06 08:56:32;;;;;;;10.23;5.27;;;27.10;45.20;;;;;;5011732;28;20498;-47
2023/09/06 08:58:59;;;;;;;5.20;4.77;;;27.40;44.90;;;;;;5009609;28;22454;-46
2023/09/06 09:01:25;;;;;;;5.43;4.87;;;27.60;44.60;;;;;;5011738;28;20477;-48
2023/09/06 09:03:51;;;;;;;5.57;4.73;;;27.80;44.80;;;;;;5015605;28;20516;-50
2023/09/06 09:06:16;;;;;;;5.00;4.60;;;27.90;43.80;;;;;;5014511;28;20480;-49
2023/09/06 09:08:42;;;;;;;5.20;4.70;;;28.10;43.60;;;;;;5010413;28;20270;-48
2023/09/06 09:11:07;;;;;;;5.40;4.87;;;28.20;43.70;;;;;;5003124;28;20198;-49
2023/09/06 09:13:33;;;;;;;4.80;4.40;;;27.90;43.80;;;;;;5010903;28;20205;-46
2023/09/06 09:15:58;;;;;;;5.87;5.30;;;27.90;43.90;;;;;;5011283;28;20210;-50
2023/09/06 09:18:24;;;;;;;5.30;4.90;;;28.20;43.90;;;;;;5012571;28;20277;-45
2023/09/06 09:20:49;;;;;;;5.57;5.07;;;28.50;42.90;;;;;;5009635;28;20186;-48
2023/09/06 09:23:16;;;;;;;5.20;4.70;;;28.50;43.50;;;;;;5013431;28;20190;-48
2023/09/06 09:25:49;;;;;;;6.03;4.53;;;28.60;42.60;;;;;;5010510;28;20202;-49
2023/09/06 09:28:15;;;;;;;6.00;5.50;;;28.70;43.20;;;;;;5008692;28;20908;-48
2023/09/06 09:30:41;;;;;;;5.63;4.60;;;28.80;42.10;;;;;;5009839;28;20469;-47
2023/09/06 09:33:07;;;;;;;5.10;4.40;;;28.50;44.40;;;;;;5011630;28;20437;-46
2023/09/06 09:35:32;;;;;;;5.23;4.73;;;28.70;43.90;;;;;;5002346;28;20280;-45
2023/09/06 09:38:00;;;;;;;5.30;4.90;;;28.60;43.00;;;;;;5013686;28;20601;-45
2023/09/06 09:40:32;;;;;;;5.30;4.80;;;28.70;42.80;;;;;;5012347;28;20194;-46
2023/09/06 09:43:04;;;;;;;6.90;5.57;;;29.10;43.20;;;;;;5005892;28;20528;-46
2023/09/06 09:45:41;;;;;;;5.40;4.97;;;29.30;41.90;;;;;;5010043;28;21034;-45
2023/09/06 09:48:08;;;;;;;6.40;5.20;;;29.60;41.30;;;;;;5010617;28;20932;-47
2023/09/06 09:50:35;;;;;;;7.87;4.67;;;29.70;41.00;;;;;;5001880;28;20477;-47
2023/09/06 09:53:03;;;;;;;4.90;4.50;;;29.80;40.80;;;;;;5010674;28;20449;-47
2023/09/06 09:55:31;;;;;;;7.43;4.90;;;30.00;40.90;;;;;;5001984;28;20527;-46
2023/09/06 09:57:58;;;;;;;5.13;4.73;;;30.10;39.80;;;;;;5003767;28;20452;-45
2023/09/06 10:00:27;;;;;;;6.40;4.73;;;30.20;40.80;;;;;;5005873;28;20896;-46
2023/09/06 10:02:57;;;;;;;5.40;4.83;;;30.20;40.40;;;;;;5009667;28;20439;-48
2023/09/06 10:05:26;;;;;;;4.20;3.80;;;30.40;39.60;;;;;;5009830;28;20503;-46
2023/09/06 10:07:55;;;;;;;5.97;5.37;;;30.70;40.30;;;;;;5013895;28;20433;-46
2023/09/06 10:10:22;;;;;;;5.37;4.87;;;30.80;38.40;;;;;;5011520;28;20484;-46
2023/09/06 10:12:50;;;;;;;4.33;4.03;;;30.70;38.40;;;;;;5008589;28;20434;-46
2023/09/06 10:15:19;;;;;;;5.70;4.50;;;31.00;38.20;;;;;;5011156;28;20945;-45
2023/09/06 10:17:48;;;;;;;4.63;4.23;;;31.10;37.20;;;;;;5012730;28;20445;-46
2023/09/06 10:20:14;;;;;;;5.20;4.70;;;31.40;37.40;;;;;;5011235;28;20460;-45
2023/09/06 10:22:46;;;;;;;5.00;4.37;;;31.30;37.00;;;;;;5013422;28;20437;-45
2023/09/06 10:25:14;;;;;;;5.67;5.07;;;31.60;37.30;;;;;;5013147;28;20271;-45
2023/09/06 10:27:48;;;;;;;4.90;4.50;;;31.60;37.10;;;;;;5010332;28;20444;-45
2023/09/06 10:30:17;;;;;;;5.20;4.70;;;31.60;37.10;;;;;;5011829;28;20808;-47
2023/09/06 10:32:45;;;;;;;4.93;4.53;;;31.90;36.90;;;;;;4998839;28;20461;-47
2023/09/06 10:35:20;;;;;;;5.77;4.97;;;32.00;37.10;;;;;;5008588;28;20579;-46
2023/09/06 10:38:11;;;;;;;6.17;4.37;;;32.30;36.30;;;;;;5006005;28;20455;-45
2023/09/06 10:40:49;;;;;;;4.53;4.23;;;32.60;36.70;;;;;;5006986;28;22121;-46
2023/09/06 10:43:19;;;;;;;5.30;4.90;;;32.40;35.80;;;;;;5005572;28;20973;-47
2023/09/06 10:46:10;;;;;;;4.97;4.50;;;32.70;35.90;;;;;;4998981;28;20532;-46
2023/09/06 10:48:36;;;;;;;5.70;5.20;;;32.80;35.20;;;;;;5011018;28;20814;-47
2023/09/06 10:51:06;;;;;;;5.43;4.93;;;32.90;35.40;;;;;;5011932;28;20534;-45
2023/09/06 10:53:33;;;;;;;5.63;5.03;;;33.10;34.10;;;;;;5003220;28;20453;-46
2023/09/06 10:56:00;;;;;;;5.30;4.80;;;33.20;35.00;;;;;;5001503;28;20570;-47
2023/09/06 10:58:28;;;;;;;8.10;4.70;;;33.40;34.60;;;;;;5010299;28;20476;-46
2023/09/06 11:01:13;;;;;;;5.50;5.00;;;33.20;33.70;;;;;;5010280;28;20463;-46
2023/09/06 11:03:41;;;;;;;6.70;5.00;;;33.20;34.50;;;;;;5004871;28;20476;-46
2023/09/06 11:06:06;;;;;;;5.57;5.13;;;33.40;34.00;;;;;;5008932;28;20449;-47
2023/09/06 11:08:33;;;;;;;4.83;4.53;;;33.30;33.50;;;;;;5013257;28;20424;-46
2023/09/06 11:11:04;;;;;;;5.30;4.90;;;33.30;34.10;;;;;;5000763;28;20194;-46
2023/09/06 11:13:32;;;;;;;5.77;4.80;;;33.50;34.30;;;;;;5010270;28;20449;-45
2023/09/06 11:16:03;;;;;;;8.07;4.60;;;33.90;33.80;;;;;;5010952;28;20432;-50
2023/09/06 11:18:30;;;;;;;5.60;4.90;;;33.80;33.80;;;;;;5008120;28;20448;-46
2023/09/06 11:20:56;;;;;;;5.20;4.70;;;34.20;33.70;;;;;;5009761;28;20865;-45
2023/09/06 11:23:22;;;;;;;5.17;4.60;;;34.50;33.60;;;;;;5004356;28;20506;-45
2023/09/06 11:25:57;;;;;;;6.20;4.60;;;34.70;33.40;;;;;;5006969;28;20201;-48
2023/09/06 11:28:23;;;;;;;4.63;4.23;;;34.90;33.60;;;;;;5007331;28;20291;-46
2023/09/06 11:30:48;;;;;;;5.40;4.97;;;35.10;32.60;;;;;;5007829;28;20887;-47
2023/09/06 11:33:16;;;;;;;5.30;4.80;;;35.20;31.80;;;;;;5009427;28;20565;-47
2023/09/06 11:35:51;;;;;;;4.93;4.47;;;35.40;32.90;;;;;;5007862;28;20271;-45
2023/09/06 11:38:20;;;;;;;5.10;4.70;;;35.50;32.50;;;;;;5009809;28;20456;-48
2023/09/06 11:40:46;;;;;;;5.30;4.90;;;35.50;31.70;;;;;;5001985;28;20536;-46
2023/09/06 11:43:14;;;;;;;4.80;4.40;;;35.50;32.70;;;;;;5006360;28;20947;-48
2023/09/06 11:45:43;;;;;;;4.77;4.37;;;35.50;31.50;;;;;;5002804;28;20859;-51
2023/09/06 11:48:09;;;;;;;5.13;4.73;;;35.50;31.80;;;;;;5010568;28;20432;-48
2023/09/06 11:50:38;;;;;;;5.40;5.00;;;35.60;32.00;;;;;;5001500;28;20464;-46
2023/09/06 11:53:09;;;;;;;5.63;5.13;;;35.70;32.10;;;;;;5005004;28;20814;-51
2023/09/06 11:55:39;;;;;;;5.00;4.43;;;36.00;31.60;;;;;;5007052;28;20809;-48
2023/09/06 11:58:14;;;;;;;5.53;5.13;;;36.30;32.30;;;;;;5000187;28;20440;-47
2023/09/06 12:00:42;;;;;;;4.57;4.27;;;36.00;30.50;;;;;;5003728;28;20451;-46
2023/09/06 12:03:13;;;;;;;5.30;4.90;;;35.70;31.50;;;;;;5006432;28;20537;-47
2023/09/06 12:05:43;;;;;;;5.60;5.10;;;36.00;30.70;;;;;;4992859;28;20533;-47
2023/09/06 12:08:11;;;;;;;5.33;4.93;;;36.00;30.00;;;;;;5010780;28;20452;-50
2023/09/06 12:10:38;;;;;;;6.10;5.50;;;35.50;30.40;;;;;;5008064;28;20822;-48
2023/09/06 12:13:07;;;;;;;5.50;4.83;;;34.90;30.60;;;;;;5003013;28;20489;-48
2023/09/06 12:15:33;;;;;;;5.00;4.60;;;34.80;31.50;;;;;;5001610;28;20475;-46
2023/09/06 12:17:59;;;;;;;5.00;4.50;;;35.10;32.20;;;;;;5001805;28;20449;-48
2023/09/06 12:20:25;;;;;;;6.07;4.97;;;35.60;31.40;;;;;;5009150;28;20613;-46
2023/09/06 12:22:52;;;;;;;4.80;4.40;;;35.90;30.70;;;;;;5012912;28;20543;-45
2023/09/06 12:25:19;;;;;;;5.17;4.77;;;36.20;30.00;;;;;;5010021;28;20225;-46
2023/09/06 12:27:48;;;;;;;4.83;4.30;;;36.30;29.70;;;;;;5014680;28;20440;-44
2023/09/06 12:30:18;;;;;;;4.50;4.20;;;36.60;30.50;;;;;;5013014;28;20440;-46
2023/09/06 12:32:44;;;;;;;5.13;4.77;;;36.90;29.20;;;;;;5013308;28;20448;-46
2023/09/06 12:35:11;;;;;;;5.13;4.73;;;37.00;29.40;;;;;;5014984;28;20447;-44
2023/09/06 12:37:37;;;;;;;5.23;4.70;;;37.20;29.40;;;;;;5010958;28;20457;-45
2023/09/06 12:40:10;;;;;;;4.30;4.00;;;37.30;29.20;;;;;;5007448;28;20444;-44
2023/09/06 12:42:53;;;;;;;4.93;4.63;;;37.30;29.70;;;;;;5006880;28;20659;-46
2023/09/06 12:45:28;;;;;;;5.30;4.80;;;37.50;29.00;;;;;;5014014;28;20483;-47
2023/09/06 12:48:00;;;;;;;4.43;4.13;;;37.20;28.10;;;;;;5012329;28;20432;-50
2023/09/06 12:50:26;;;;;;;5.07;4.63;;;37.20;28.40;;;;;;5015692;28;20493;-45